Pagina principale
METAR-TAF:

METAR-TAF

Aeroporti :

Aeroporto di Comiso

Comiso, Italia

latitudine: 36-59-30N, longitudine: 14-36-25E, altezza: 190 m

Osservazione

Il bollettino è stato emesso 22 minuti fa, alle 14:20 UTC
Vento 12 kt da ovest/sud-ovest
Temperature 25°C
Umidità 57%
Pressione 1009 hPa
Visibilità 10 km o più

METAR: LICB 271420Z AUTO 25012KT 9999 NCD 25/16 Q1009

Ora: 16:42 (14:42 UTC)

Previsione

Il bollettino è stato emesso 3 ore e 42 minuti fa, alle 11:00 UTC
Previsione valida dal 27 alle 12 UTC al 28 alle 12 UTC
Vento 13 kt da ovest/sud-ovest
Visibilità 10 km o più
Nubi sparse ad un'altezza di 2000 ft
Evoluzione graduale
dal 27 alle 17 UTC al 27 alle 19 UTC
Vento 5 kt da direzioni variabili
Evoluzione graduale
dal 28 alle 08 UTC al 28 alle 10 UTC
Vento 12 kt da ovest/sud-ovest

TAF: LICB 271100Z 2712/2812 25013KT 9999 SCT020 BECMG 2717/2719 VRB05KT BECMG 2808/2810 25012KT

Osservazioni e previsioni meteorologiche di più di 4000 aeroporti (messaggi METAR e TAF).

Le stazioni disponibili sono rappresentate dai dischi gialli e rossi sulla carta.

Puntare il mouse per vedere il nome della stazione.

Clicca sopra per visualizzare le osservazioni e previsioni meteorologiche.

Per cambiare la mappa : fare clic sui pulsanti verdi con una croce nera per ingrandire, il pulsante verde con un trattino per diminuire, o sulla freccia verde per le mappe adiacenti.


METAR-TAF: